sensor_id;sensor_type;location;lat;lon;timestamp;P1;durP1;ratioP1;P2;durP2;ratioP2
69220;SDS011;56331;51.992;20.910;2023-04-01T00:01:10;2.12;;;1.27;;
69220;SDS011;56331;51.992;20.910;2023-04-01T00:03:40;1.98;;;1.20;;
69220;SDS011;56331;51.992;20.910;2023-04-01T00:06:07;3.00;;;1.40;;
69220;SDS011;56331;51.992;20.910;2023-04-01T00:08:38;2.33;;;1.27;;
69220;SDS011;56331;51.992;20.910;2023-04-01T00:11:02;1.75;;;1.37;;
69220;SDS011;56331;51.992;20.910;2023-04-01T00:13:28;3.30;;;1.40;;
69220;SDS011;56331;51.992;20.910;2023-04-01T00:15:55;2.35;;;1.47;;
69220;SDS011;56331;51.992;20.910;2023-04-01T00:18:22;2.80;;;1.22;;
69220;SDS011;56331;51.992;20.910;2023-04-01T00:20:50;3.35;;;1.10;;
69220;SDS011;56331;51.992;20.910;2023-04-01T00:23:18;1.95;;;1.30;;
69220;SDS011;56331;51.992;20.910;2023-04-01T00:25:45;2.80;;;1.50;;
69220;SDS011;56331;51.992;20.910;2023-04-01T00:28:14;2.12;;;1.17;;
69220;SDS011;56331;51.992;20.910;2023-04-01T00:30:42;4.05;;;1.27;;
69220;SDS011;56331;51.992;20.910;2023-04-01T00:33:08;1.75;;;1.10;;
69220;SDS011;56331;51.992;20.910;2023-04-01T00:35:36;1.92;;;1.27;;
69220;SDS011;56331;51.992;20.910;2023-04-01T00:38:03;2.00;;;1.20;;
69220;SDS011;56331;51.992;20.910;2023-04-01T00:40:32;4.35;;;1.42;;
69220;SDS011;56331;51.992;20.910;2023-04-01T00:43:05;2.87;;;1.42;;
69220;SDS011;56331;51.992;20.910;2023-04-01T00:45:41;3.40;;;1.30;;
69220;SDS011;56331;51.992;20.910;2023-04-01T00:48:10;2.70;;;1.20;;
69220;SDS011;56331;51.992;20.910;2023-04-01T00:50:46;2.05;;;1.20;;
69220;SDS011;56331;51.992;20.910;2023-04-01T00:53:23;2.52;;;1.20;;
69220;SDS011;56331;51.992;20.910;2023-04-01T00:55:54;2.42;;;1.12;;
69220;SDS011;56331;51.992;20.910;2023-04-01T00:58:23;2.58;;;1.30;;
69220;SDS011;56331;51.992;20.910;2023-04-01T01:00:51;1.87;;;1.00;;
69220;SDS011;56331;51.992;20.910;2023-04-01T01:03:19;2.12;;;1.20;;
69220;SDS011;56331;51.992;20.910;2023-04-01T01:05:53;3.72;;;1.40;;
69220;SDS011;56331;51.992;20.910;2023-04-01T01:11:29;3.42;;;1.15;;
69220;SDS011;56331;51.992;20.910;2023-04-01T01:14:02;1.80;;;1.20;;
69220;SDS011;56331;51.992;20.910;2023-04-01T01:16:44;2.60;;;1.30;;
69220;SDS011;56331;51.992;20.910;2023-04-01T01:21:56;1.57;;;1.00;;
69220;SDS011;56331;51.992;20.910;2023-04-01T01:24:41;2.45;;;1.12;;
69220;SDS011;56331;51.992;20.910;2023-04-01T01:27:18;2.30;;;1.17;;
69220;SDS011;56331;51.992;20.910;2023-04-01T01:37:55;3.40;;;1.45;;
69220;SDS011;56331;51.992;20.910;2023-04-01T01:40:26;2.47;;;1.50;;
69220;SDS011;56331;51.992;20.910;2023-04-01T01:42:55;1.72;;;1.00;;
69220;SDS011;56331;51.992;20.910;2023-04-01T01:45:24;2.62;;;1.07;;
69220;SDS011;56331;51.992;20.910;2023-04-01T01:47:53;1.52;;;1.05;;
69220;SDS011;56331;51.992;20.910;2023-04-01T01:50:23;2.47;;;1.00;;
69220;SDS011;56331;51.992;20.910;2023-04-01T01:52:59;2.95;;;1.32;;
69220;SDS011;56331;51.992;20.910;2023-04-01T01:55:35;2.30;;;1.22;;
69220;SDS011;56331;51.992;20.910;2023-04-01T01:58:47;2.42;;;1.17;;
69220;SDS011;56331;51.992;20.910;2023-04-01T02:00:40;2.02;;;1.30;;
69220;SDS011;56331;51.992;20.910;2023-04-01T02:03:10;2.02;;;1.00;;
69220;SDS011;56331;51.992;20.910;2023-04-01T02:05:38;2.52;;;1.20;;
69220;SDS011;56331;51.992;20.910;2023-04-01T02:08:13;1.22;;;0.80;;
69220;SDS011;56331;51.992;20.910;2023-04-01T02:10:44;1.95;;;1.22;;
69220;SDS011;56331;51.992;20.910;2023-04-01T02:13:17;2.35;;;1.20;;
69220;SDS011;56331;51.992;20.910;2023-04-01T02:15:49;1.42;;;1.12;;
69220;SDS011;56331;51.992;20.910;2023-04-01T02:18:20;1.35;;;1.10;;
69220;SDS011;56331;51.992;20.910;2023-04-01T02:20:47;1.70;;;1.10;;
69220;SDS011;56331;51.992;20.910;2023-04-01T02:23:15;1.47;;;1.00;;
69220;SDS011;56331;51.992;20.910;2023-04-01T02:25:42;1.70;;;1.10;;
69220;SDS011;56331;51.992;20.910;2023-04-01T02:28:11;1.77;;;1.10;;
69220;SDS011;56331;51.992;20.910;2023-04-01T02:30:41;1.90;;;1.25;;
69220;SDS011;56331;51.992;20.910;2023-04-01T02:33:10;1.60;;;1.00;;
69220;SDS011;56331;51.992;20.910;2023-04-01T02:35:37;2.10;;;1.22;;
69220;SDS011;56331;51.992;20.910;2023-04-01T02:38:04;1.95;;;1.20;;
69220;SDS011;56331;51.992;20.910;2023-04-01T02:40:50;1.75;;;1.00;;
69220;SDS011;56331;51.992;20.910;2023-04-01T02:43:14;1.55;;;1.15;;
69220;SDS011;56331;51.992;20.910;2023-04-01T02:45:40;1.55;;;1.20;;
69220;SDS011;56331;51.992;20.910;2023-04-01T02:48:06;2.05;;;1.20;;
69220;SDS011;56331;51.992;20.910;2023-04-01T02:50:33;2.65;;;1.00;;
69220;SDS011;56331;51.992;20.910;2023-04-01T02:53:00;1.45;;;1.10;;
69220;SDS011;56331;51.992;20.910;2023-04-01T02:55:29;1.55;;;1.10;;
69220;SDS011;56331;51.992;20.910;2023-04-01T02:57:56;2.05;;;1.10;;
69220;SDS011;56331;51.992;20.910;2023-04-01T03:00:23;1.40;;;1.00;;
69220;SDS011;56331;51.992;20.910;2023-04-01T03:02:49;1.67;;;1.00;;
69220;SDS011;56331;51.992;20.910;2023-04-01T03:05:16;2.50;;;1.12;;
69220;SDS011;56331;51.992;20.910;2023-04-01T03:07:43;1.60;;;1.30;;
69220;SDS011;56331;51.992;20.910;2023-04-01T03:10:10;1.47;;;1.00;;
69220;SDS011;56331;51.992;20.910;2023-04-01T03:12:37;1.67;;;0.90;;
69220;SDS011;56331;51.992;20.910;2023-04-01T03:15:04;1.67;;;0.95;;
69220;SDS011;56331;51.992;20.910;2023-04-01T03:17:31;2.45;;;1.35;;
69220;SDS011;56331;51.992;20.910;2023-04-01T03:19:58;1.35;;;1.00;;
69220;SDS011;56331;51.992;20.910;2023-04-01T03:22:24;1.60;;;1.05;;
69220;SDS011;56331;51.992;20.910;2023-04-01T03:24:51;2.02;;;1.17;;
69220;SDS011;56331;51.992;20.910;2023-04-01T03:27:18;3.30;;;1.40;;
69220;SDS011;56331;51.992;20.910;2023-04-01T03:29:44;2.35;;;1.25;;
69220;SDS011;56331;51.992;20.910;2023-04-01T03:32:16;1.50;;;1.10;;
69220;SDS011;56331;51.992;20.910;2023-04-01T03:34:42;2.60;;;1.35;;
69220;SDS011;56331;51.992;20.910;2023-04-01T03:37:09;2.77;;;1.30;;
69220;SDS011;56331;51.992;20.910;2023-04-01T03:39:35;2.15;;;1.10;;
69220;SDS011;56331;51.992;20.910;2023-04-01T03:42:02;1.55;;;1.02;;
69220;SDS011;56331;51.992;20.910;2023-04-01T03:44:35;1.87;;;1.10;;
69220;SDS011;56331;51.992;20.910;2023-04-01T03:47:01;1.82;;;1.10;;
69220;SDS011;56331;51.992;20.910;2023-04-01T03:49:28;2.15;;;1.10;;
69220;SDS011;56331;51.992;20.910;2023-04-01T03:51:54;1.67;;;1.17;;
69220;SDS011;56331;51.992;20.910;2023-04-01T03:54:21;2.08;;;1.40;;
69220;SDS011;56331;51.992;20.910;2023-04-01T03:56:47;2.95;;;1.27;;
69220;SDS011;56331;51.992;20.910;2023-04-01T03:59:14;4.45;;;1.30;;
69220;SDS011;56331;51.992;20.910;2023-04-01T04:01:41;1.42;;;1.15;;
69220;SDS011;56331;51.992;20.910;2023-04-01T04:04:10;2.92;;;1.42;;
69220;SDS011;56331;51.992;20.910;2023-04-01T04:06:39;3.85;;;1.40;;
69220;SDS011;56331;51.992;20.910;2023-04-01T04:09:06;1.98;;;1.22;;
69220;SDS011;56331;51.992;20.910;2023-04-01T04:11:32;1.40;;;1.10;;
69220;SDS011;56331;51.992;20.910;2023-04-01T04:13:59;2.45;;;1.55;;
69220;SDS011;56331;51.992;20.910;2023-04-01T04:16:26;2.92;;;1.30;;
69220;SDS011;56331;51.992;20.910;2023-04-01T04:18:52;3.05;;;1.55;;
69220;SDS011;56331;51.992;20.910;2023-04-01T04:21:19;3.70;;;2.52;;
69220;SDS011;56331;51.992;20.910;2023-04-01T04:23:46;4.55;;;2.33;;
69220;SDS011;56331;51.992;20.910;2023-04-01T04:26:15;4.10;;;2.40;;
69220;SDS011;56331;51.992;20.910;2023-04-01T04:28:41;3.33;;;1.95;;
69220;SDS011;56331;51.992;20.910;2023-04-01T04:31:10;5.12;;;1.90;;
69220;SDS011;56331;51.992;20.910;2023-04-01T04:33:36;3.22;;;1.90;;
69220;SDS011;56331;51.992;20.910;2023-04-01T04:36:03;2.62;;;1.62;;
69220;SDS011;56331;51.992;20.910;2023-04-01T04:38:32;4.90;;;2.40;;
69220;SDS011;56331;51.992;20.910;2023-04-01T04:40:58;3.55;;;2.12;;
69220;SDS011;56331;51.992;20.910;2023-04-01T04:43:25;3.25;;;1.90;;
69220;SDS011;56331;51.992;20.910;2023-04-01T04:45:51;4.70;;;2.00;;
69220;SDS011;56331;51.992;20.910;2023-04-01T04:48:18;3.33;;;1.70;;
69220;SDS011;56331;51.992;20.910;2023-04-01T04:50:46;4.50;;;2.00;;
69220;SDS011;56331;51.992;20.910;2023-04-01T04:53:15;4.22;;;2.02;;
69220;SDS011;56331;51.992;20.910;2023-04-01T04:55:50;4.28;;;2.00;;
69220;SDS011;56331;51.992;20.910;2023-04-01T04:58:16;5.33;;;1.55;;
69220;SDS011;56331;51.992;20.910;2023-04-01T05:00:43;3.83;;;1.90;;
69220;SDS011;56331;51.992;20.910;2023-04-01T05:03:10;2.22;;;1.60;;
69220;SDS011;56331;51.992;20.910;2023-04-01T05:05:37;6.37;;;2.10;;
69220;SDS011;56331;51.992;20.910;2023-04-01T05:08:04;7.17;;;1.85;;
69220;SDS011;56331;51.992;20.910;2023-04-01T05:10:31;4.42;;;2.00;;
69220;SDS011;56331;51.992;20.910;2023-04-01T05:12:58;3.20;;;1.90;;
69220;SDS011;56331;51.992;20.910;2023-04-01T05:15:25;4.22;;;1.82;;
69220;SDS011;56331;51.992;20.910;2023-04-01T05:17:51;4.80;;;1.98;;
69220;SDS011;56331;51.992;20.910;2023-04-01T05:20:18;3.27;;;1.65;;
69220;SDS011;56331;51.992;20.910;2023-04-01T05:22:45;3.80;;;1.55;;
69220;SDS011;56331;51.992;20.910;2023-04-01T05:25:11;4.25;;;1.60;;
69220;SDS011;56331;51.992;20.910;2023-04-01T05:27:38;5.03;;;1.82;;
69220;SDS011;56331;51.992;20.910;2023-04-01T05:30:05;4.03;;;1.57;;
69220;SDS011;56331;51.992;20.910;2023-04-01T05:32:32;3.17;;;1.82;;
69220;SDS011;56331;51.992;20.910;2023-04-01T05:34:58;2.95;;;1.80;;
69220;SDS011;56331;51.992;20.910;2023-04-01T05:37:25;5.15;;;1.95;;
69220;SDS011;56331;51.992;20.910;2023-04-01T05:39:51;2.42;;;1.80;;
69220;SDS011;56331;51.992;20.910;2023-04-01T05:42:18;4.90;;;1.60;;
69220;SDS011;56331;51.992;20.910;2023-04-01T05:44:44;3.47;;;1.95;;
69220;SDS011;56331;51.992;20.910;2023-04-01T05:47:14;3.50;;;1.92;;
69220;SDS011;56331;51.992;20.910;2023-04-01T05:49:40;3.65;;;1.77;;
69220;SDS011;56331;51.992;20.910;2023-04-01T05:52:07;2.70;;;1.82;;
69220;SDS011;56331;51.992;20.910;2023-04-01T05:54:34;4.97;;;1.57;;
69220;SDS011;56331;51.992;20.910;2023-04-01T05:57:01;3.42;;;1.70;;
69220;SDS011;56331;51.992;20.910;2023-04-01T05:59:27;4.47;;;1.80;;
69220;SDS011;56331;51.992;20.910;2023-04-01T06:01:56;2.27;;;1.60;;
69220;SDS011;56331;51.992;20.910;2023-04-01T06:04:24;2.98;;;1.62;;
69220;SDS011;56331;51.992;20.910;2023-04-01T06:06:53;4.72;;;1.50;;
69220;SDS011;56331;51.992;20.910;2023-04-01T06:09:29;3.92;;;1.95;;
69220;SDS011;56331;51.992;20.910;2023-04-01T06:15:03;2.58;;;1.50;;
69220;SDS011;56331;51.992;20.910;2023-04-01T06:48:01;2.45;;;1.40;;
69220;SDS011;56331;51.992;20.910;2023-04-01T06:50:30;1.75;;;1.30;;
69220;SDS011;56331;51.992;20.910;2023-04-01T06:53:15;1.67;;;1.35;;
69220;SDS011;56331;51.992;20.910;2023-04-01T06:55:46;1.98;;;1.50;;
69220;SDS011;56331;51.992;20.910;2023-04-01T06:58:19;2.10;;;1.57;;
69220;SDS011;56331;51.992;20.910;2023-04-01T07:00:51;1.77;;;1.37;;
69220;SDS011;56331;51.992;20.910;2023-04-01T07:06:02;2.33;;;1.17;;
69220;SDS011;56331;51.992;20.910;2023-04-01T07:08:31;2.37;;;1.50;;
69220;SDS011;56331;51.992;20.910;2023-04-01T07:16:19;1.92;;;1.35;;
69220;SDS011;56331;51.992;20.910;2023-04-01T07:18:52;2.15;;;1.50;;
69220;SDS011;56331;51.992;20.910;2023-04-01T07:21:30;1.98;;;1.30;;
69220;SDS011;56331;51.992;20.910;2023-04-01T07:24:22;2.83;;;1.20;;
69220;SDS011;56331;51.992;20.910;2023-04-01T07:26:57;1.70;;;1.27;;
69220;SDS011;56331;51.992;20.910;2023-04-01T07:29:24;1.50;;;1.30;;
69220;SDS011;56331;51.992;20.910;2023-04-01T07:32:00;4.12;;;1.20;;
69220;SDS011;56331;51.992;20.910;2023-04-01T07:40:32;1.90;;;1.30;;
69220;SDS011;56331;51.992;20.910;2023-04-01T07:57:06;1.62;;;1.30;;
69220;SDS011;56331;51.992;20.910;2023-04-01T08:00:30;1.42;;;1.15;;
69220;SDS011;56331;51.992;20.910;2023-04-01T08:02:38;2.22;;;1.20;;
69220;SDS011;56331;51.992;20.910;2023-04-01T08:05:29;2.20;;;1.30;;
69220;SDS011;56331;51.992;20.910;2023-04-01T08:08:06;1.92;;;1.30;;
69220;SDS011;56331;51.992;20.910;2023-04-01T08:13:32;4.00;;;1.32;;
69220;SDS011;56331;51.992;20.910;2023-04-01T08:21:49;2.75;;;1.37;;
69220;SDS011;56331;51.992;20.910;2023-04-01T08:27:21;2.47;;;1.45;;
69220;SDS011;56331;51.992;20.910;2023-04-01T08:30:58;2.80;;;1.27;;
69220;SDS011;56331;51.992;20.910;2023-04-01T08:33:12;2.22;;;1.35;;
69220;SDS011;56331;51.992;20.910;2023-04-01T08:41:36;2.47;;;1.32;;
69220;SDS011;56331;51.992;20.910;2023-04-01T08:52:36;3.08;;;1.50;;
69220;SDS011;56331;51.992;20.910;2023-04-01T09:00:56;1.30;;;1.02;;
69220;SDS011;56331;51.992;20.910;2023-04-01T09:03:35;2.37;;;1.25;;
69220;SDS011;56331;51.992;20.910;2023-04-01T09:25:45;1.40;;;1.30;;
69220;SDS011;56331;51.992;20.910;2023-04-01T09:28:18;1.50;;;1.22;;
69220;SDS011;56331;51.992;20.910;2023-04-01T09:45:34;4.17;;;1.50;;
69220;SDS011;56331;51.992;20.910;2023-04-01T09:50:44;4.72;;;1.40;;
69220;SDS011;56331;51.992;20.910;2023-04-01T09:53:20;2.17;;;1.40;;
69220;SDS011;56331;51.992;20.910;2023-04-01T09:59:00;2.95;;;1.47;;
69220;SDS011;56331;51.992;20.910;2023-04-01T10:07:27;2.22;;;1.22;;
69220;SDS011;56331;51.992;20.910;2023-04-01T10:10:19;2.50;;;1.32;;
69220;SDS011;56331;51.992;20.910;2023-04-01T10:35:35;2.77;;;1.20;;
69220;SDS011;56331;51.992;20.910;2023-04-01T10:40:57;1.62;;;1.25;;
69220;SDS011;56331;51.992;20.910;2023-04-01T11:07:05;2.40;;;1.50;;
69220;SDS011;56331;51.992;20.910;2023-04-01T11:34:28;1.85;;;1.02;;
69220;SDS011;56331;51.992;20.910;2023-04-01T11:40:05;1.10;;;1.00;;
69220;SDS011;56331;51.992;20.910;2023-04-01T11:56:08;2.12;;;1.00;;
69220;SDS011;56331;51.992;20.910;2023-04-01T12:04:00;1.45;;;1.07;;
69220;SDS011;56331;51.992;20.910;2023-04-01T12:06:48;1.77;;;1.00;;
69220;SDS011;56331;51.992;20.910;2023-04-01T12:20:54;1.30;;;0.90;;
69220;SDS011;56331;51.992;20.910;2023-04-01T12:23:55;1.45;;;0.80;;
69220;SDS011;56331;51.992;20.910;2023-04-01T12:29:18;1.27;;;1.15;;
69220;SDS011;56331;51.992;20.910;2023-04-01T12:47:55;0.90;;;0.80;;
69220;SDS011;56331;51.992;20.910;2023-04-01T12:50:33;1.27;;;0.70;;
69220;SDS011;56331;51.992;20.910;2023-04-01T12:56:02;2.17;;;1.07;;
69220;SDS011;56331;51.992;20.910;2023-04-01T13:04:12;1.42;;;0.88;;
69220;SDS011;56331;51.992;20.910;2023-04-01T13:06:42;1.92;;;1.00;;
69220;SDS011;56331;51.992;20.910;2023-04-01T13:17:40;1.32;;;0.75;;
69220;SDS011;56331;51.992;20.910;2023-04-01T13:20:33;1.30;;;0.85;;
69220;SDS011;56331;51.992;20.910;2023-04-01T13:25:57;1.60;;;1.07;;
69220;SDS011;56331;51.992;20.910;2023-04-01T13:28:30;2.27;;;1.27;;
69220;SDS011;56331;51.992;20.910;2023-04-01T13:31:02;2.58;;;1.20;;
69220;SDS011;56331;51.992;20.910;2023-04-01T13:33:38;1.47;;;1.02;;
69220;SDS011;56331;51.992;20.910;2023-04-01T13:36:12;3.17;;;1.20;;
69220;SDS011;56331;51.992;20.910;2023-04-01T13:44:01;2.92;;;1.20;;
69220;SDS011;56331;51.992;20.910;2023-04-01T13:46:54;3.42;;;1.62;;
69220;SDS011;56331;51.992;20.910;2023-04-01T13:55:05;4.45;;;1.62;;
69220;SDS011;56331;51.992;20.910;2023-04-01T14:03:09;1.92;;;1.40;;
69220;SDS011;56331;51.992;20.910;2023-04-01T14:13:52;1.42;;;1.20;;
69220;SDS011;56331;51.992;20.910;2023-04-01T14:16:37;1.80;;;1.00;;
69220;SDS011;56331;51.992;20.910;2023-04-01T14:52:23;1.20;;;0.90;;
69220;SDS011;56331;51.992;20.910;2023-04-01T14:54:44;1.37;;;1.17;;
69220;SDS011;56331;51.992;20.910;2023-04-01T15:00:01;2.12;;;0.98;;
69220;SDS011;56331;51.992;20.910;2023-04-01T15:11:15;1.10;;;0.80;;
69220;SDS011;56331;51.992;20.910;2023-04-01T15:14:48;1.77;;;1.00;;
69220;SDS011;56331;51.992;20.910;2023-04-01T15:22:38;1.27;;;0.80;;
69220;SDS011;56331;51.992;20.910;2023-04-01T15:25:19;1.47;;;0.80;;
69220;SDS011;56331;51.992;20.910;2023-04-01T15:28:07;2.05;;;0.93;;
69220;SDS011;56331;51.992;20.910;2023-04-01T15:30:48;2.30;;;0.90;;
69220;SDS011;56331;51.992;20.910;2023-04-01T15:33:30;1.25;;;0.80;;
69220;SDS011;56331;51.992;20.910;2023-04-01T15:38:51;1.10;;;0.80;;
69220;SDS011;56331;51.992;20.910;2023-04-01T15:41:24;2.22;;;0.72;;
69220;SDS011;56331;51.992;20.910;2023-04-01T15:43:55;1.52;;;1.00;;
69220;SDS011;56331;51.992;20.910;2023-04-01T16:07:41;1.65;;;0.80;;
69220;SDS011;56331;51.992;20.910;2023-04-01T16:15:49;1.00;;;0.70;;
69220;SDS011;56331;51.992;20.910;2023-04-01T16:18:25;0.90;;;0.60;;
69220;SDS011;56331;51.992;20.910;2023-04-01T16:21:14;0.95;;;0.70;;
69220;SDS011;56331;51.992;20.910;2023-04-01T16:23:37;3.15;;;0.93;;
69220;SDS011;56331;51.992;20.910;2023-04-01T16:26:19;1.50;;;0.50;;
69220;SDS011;56331;51.992;20.910;2023-04-01T16:34:38;1.55;;;0.82;;
69220;SDS011;56331;51.992;20.910;2023-04-01T16:37:15;4.00;;;0.75;;
69220;SDS011;56331;51.992;20.910;2023-04-01T16:42:43;1.27;;;0.80;;
69220;SDS011;56331;51.992;20.910;2023-04-01T16:47:51;0.82;;;0.78;;
69220;SDS011;56331;51.992;20.910;2023-04-01T16:50:21;2.37;;;0.90;;
69220;SDS011;56331;51.992;20.910;2023-04-01T16:53:09;1.45;;;0.82;;
69220;SDS011;56331;51.992;20.910;2023-04-01T16:58:23;1.12;;;0.80;;
69220;SDS011;56331;51.992;20.910;2023-04-01T17:00:50;1.10;;;0.88;;
69220;SDS011;56331;51.992;20.910;2023-04-01T17:14:24;2.05;;;0.68;;
69220;SDS011;56331;51.992;20.910;2023-04-01T17:17:17;1.35;;;0.70;;
69220;SDS011;56331;51.992;20.910;2023-04-01T17:20:01;1.60;;;1.00;;
69220;SDS011;56331;51.992;20.910;2023-04-01T17:39:44;0.53;;;0.53;;
69220;SDS011;56331;51.992;20.910;2023-04-01T17:45:16;1.00;;;0.60;;
69220;SDS011;56331;51.992;20.910;2023-04-01T17:47:49;1.20;;;0.85;;
69220;SDS011;56331;51.992;20.910;2023-04-01T17:50:44;0.98;;;0.70;;
69220;SDS011;56331;51.992;20.910;2023-04-01T17:58:46;1.75;;;0.57;;
69220;SDS011;56331;51.992;20.910;2023-04-01T18:10:37;0.42;;;0.42;;
69220;SDS011;56331;51.992;20.910;2023-04-01T18:15:49;1.20;;;0.78;;
69220;SDS011;56331;51.992;20.910;2023-04-01T18:23:55;1.15;;;0.70;;
69220;SDS011;56331;51.992;20.910;2023-04-01T18:26:28;0.60;;;0.50;;
69220;SDS011;56331;51.992;20.910;2023-04-01T18:31:49;0.60;;;0.50;;
69220;SDS011;56331;51.992;20.910;2023-04-01T18:34:20;2.50;;;0.70;;
69220;SDS011;56331;51.992;20.910;2023-04-01T18:37:17;0.60;;;0.50;;
69220;SDS011;56331;51.992;20.910;2023-04-01T18:39:52;1.27;;;0.60;;
69220;SDS011;56331;51.992;20.910;2023-04-01T18:42:38;0.88;;;0.68;;
69220;SDS011;56331;51.992;20.910;2023-04-01T18:51:01;1.57;;;0.70;;
69220;SDS011;56331;51.992;20.910;2023-04-01T18:56:11;0.90;;;0.60;;
69220;SDS011;56331;51.992;20.910;2023-04-01T19:04:33;1.30;;;0.80;;
69220;SDS011;56331;51.992;20.910;2023-04-01T19:09:54;2.35;;;0.60;;
69220;SDS011;56331;51.992;20.910;2023-04-01T19:12:35;1.42;;;0.62;;
69220;SDS011;56331;51.992;20.910;2023-04-01T19:20:43;2.47;;;0.65;;
69220;SDS011;56331;51.992;20.910;2023-04-01T19:23:34;1.30;;;0.70;;
69220;SDS011;56331;51.992;20.910;2023-04-01T19:26:15;2.85;;;0.62;;
69220;SDS011;56331;51.992;20.910;2023-04-01T19:40:04;0.90;;;0.60;;
69220;SDS011;56331;51.992;20.910;2023-04-01T19:45:20;0.70;;;0.60;;
69220;SDS011;56331;51.992;20.910;2023-04-01T19:53:34;0.90;;;0.60;;
69220;SDS011;56331;51.992;20.910;2023-04-01T19:56:01;0.90;;;0.60;;
69220;SDS011;56331;51.992;20.910;2023-04-01T20:04:07;1.02;;;0.72;;
69220;SDS011;56331;51.992;20.910;2023-04-01T20:06:34;1.15;;;0.82;;
69220;SDS011;56331;51.992;20.910;2023-04-01T20:14:58;4.40;;;1.05;;
69220;SDS011;56331;51.992;20.910;2023-04-01T20:17:22;7.42;;;1.42;;
69220;SDS011;56331;51.992;20.910;2023-04-01T20:20:15;2.77;;;1.30;;
69220;SDS011;56331;51.992;20.910;2023-04-01T20:28:28;6.55;;;1.47;;
69220;SDS011;56331;51.992;20.910;2023-04-01T20:31:21;5.55;;;1.10;;
69220;SDS011;56331;51.992;20.910;2023-04-01T20:34:01;2.60;;;1.30;;
69220;SDS011;56331;51.992;20.910;2023-04-01T20:56:17;3.00;;;1.00;;
69220;SDS011;56331;51.992;20.910;2023-04-01T21:04:50;1.67;;;1.00;;
69220;SDS011;56331;51.992;20.910;2023-04-01T21:15:27;2.70;;;1.00;;
69220;SDS011;56331;51.992;20.910;2023-04-01T21:23:47;1.50;;;0.82;;
69220;SDS011;56331;51.992;20.910;2023-04-01T21:35:17;1.12;;;0.80;;
69220;SDS011;56331;51.992;20.910;2023-04-01T21:46:15;1.12;;;0.70;;
69220;SDS011;56331;51.992;20.910;2023-04-01T21:51:33;1.62;;;0.80;;
69220;SDS011;56331;51.992;20.910;2023-04-01T22:00:24;3.65;;;0.72;;
69220;SDS011;56331;51.992;20.910;2023-04-01T22:11:43;1.15;;;0.72;;
69220;SDS011;56331;51.992;20.910;2023-04-01T22:13:35;2.62;;;0.70;;
69220;SDS011;56331;51.992;20.910;2023-04-01T22:21:34;1.45;;;0.80;;
69220;SDS011;56331;51.992;20.910;2023-04-01T22:29:38;0.90;;;0.75;;
69220;SDS011;56331;51.992;20.910;2023-04-01T22:32:11;1.15;;;0.80;;
69220;SDS011;56331;51.992;20.910;2023-04-01T22:35:01;2.10;;;0.57;;
69220;SDS011;56331;51.992;20.910;2023-04-01T22:37:50;0.70;;;0.53;;
69220;SDS011;56331;51.992;20.910;2023-04-01T22:40:22;1.22;;;0.70;;
69220;SDS011;56331;51.992;20.910;2023-04-01T22:51:21;0.80;;;0.50;;
69220;SDS011;56331;51.992;20.910;2023-04-01T22:56:28;0.65;;;0.50;;
69220;SDS011;56331;51.992;20.910;2023-04-01T22:59:02;1.35;;;0.60;;
69220;SDS011;56331;51.992;20.910;2023-04-01T23:01:30;1.17;;;0.65;;
69220;SDS011;56331;51.992;20.910;2023-04-01T23:04:00;1.17;;;0.68;;
69220;SDS011;56331;51.992;20.910;2023-04-01T23:06:33;1.15;;;0.65;;
69220;SDS011;56331;51.992;20.910;2023-04-01T23:09:05;1.40;;;0.50;;
69220;SDS011;56331;51.992;20.910;2023-04-01T23:22:28;1.30;;;0.70;;
69220;SDS011;56331;51.992;20.910;2023-04-01T23:25:12;1.02;;;0.55;;
69220;SDS011;56331;51.992;20.910;2023-04-01T23:27:53;0.82;;;0.70;;
69220;SDS011;56331;51.992;20.910;2023-04-01T23:33:26;1.02;;;0.70;;
69220;SDS011;56331;51.992;20.910;2023-04-01T23:36:02;1.27;;;0.72;;
69220;SDS011;56331;51.992;20.910;2023-04-01T23:38:42;1.17;;;0.45;;
69220;SDS011;56331;51.992;20.910;2023-04-01T23:41:20;0.95;;;0.50;;
69220;SDS011;56331;51.992;20.910;2023-04-01T23:43:43;0.88;;;0.60;;
69220;SDS011;56331;51.992;20.910;2023-04-01T23:46:15;0.98;;;0.65;;
69220;SDS011;56331;51.992;20.910;2023-04-01T23:48:42;0.70;;;0.50;;
69220;SDS011;56331;51.992;20.910;2023-04-01T23:53:46;0.78;;;0.45;;
69220;SDS011;56331;51.992;20.910;2023-04-01T23:56:16;3.55;;;0.78;;
69220;SDS011;56331;51.992;20.910;2023-04-01T23:58:44;0.72;;;0.50;;
